Time;durP1;ratioP1;P1;durP2;ratioP2;P2;SDS_P1;SDS_P2;PMS_P1;PMS_P2;Temp;Humidity;BMP_temperature;BMP_pressure;BME280_temperature;BME280_humidity;BME280_pressure;Samples;Min_cycle;Max_cycle;Signal;HPM_P1;HPM_P2
2021/01/21 00:01:07;;;;;;;3.07;0.80;;;10.70;74.70;;;;;;4903049;29;20538;-78
2021/01/21 00:03:33;;;;;;;3.60;0.80;;;10.70;75.00;;;;;;4903209;29;20051;-77
2021/01/21 00:05:59;;;;;;;4.57;1.00;;;10.70;75.60;;;;;;4919994;29;20036;-77
2021/01/21 00:08:25;;;;;;;2.63;0.90;;;10.70;74.90;;;;;;4920135;29;20087;-77
2021/01/21 00:10:50;;;;;;;7.33;1.67;;;10.70;74.90;;;;;;4902969;29;20119;-77
2021/01/21 00:13:16;;;;;;;6.13;1.13;;;10.70;74.80;;;;;;4919015;29;20028;-78
2021/01/21 00:15:42;;;;;;;7.20;1.03;;;10.70;74.70;;;;;;4919864;29;20036;-76
2021/01/21 00:18:07;;;;;;;5.83;1.07;;;10.70;74.70;;;;;;4902825;29;20028;-77
2021/01/21 00:20:33;;;;;;;4.27;0.90;;;10.70;74.60;;;;;;4918705;29;20032;-77
2021/01/21 00:22:59;;;;;;;5.27;0.90;;;10.70;74.50;;;;;;4918399;29;20408;-76
2021/01/21 00:25:25;;;;;;;2.70;0.70;;;10.70;74.50;;;;;;4919572;29;20045;-76
2021/01/21 00:27:50;;;;;;;4.20;0.80;;;10.70;74.50;;;;;;4918344;29;20036;-77
2021/01/21 00:30:16;;;;;;;4.87;0.83;;;10.70;74.40;;;;;;4918341;29;20492;-77
2021/01/21 00:32:42;;;;;;;4.37;0.60;;;10.70;74.30;;;;;;4919478;29;20036;-77
2021/01/21 00:35:08;;;;;;;4.37;0.73;;;10.70;74.30;;;;;;4901550;29;20099;-76
2021/01/21 00:37:34;;;;;;;2.20;0.70;;;10.70;74.40;;;;;;4919381;29;20036;-77
2021/01/21 00:39:59;;;;;;;4.47;0.80;;;10.80;74.30;;;;;;4918035;29;20103;-76
2021/01/21 00:42:25;;;;;;;3.73;0.80;;;10.80;74.40;;;;;;4918337;29;20063;-76
2021/01/21 00:44:50;;;;;;;2.30;0.80;;;10.70;74.20;;;;;;4902532;29;20127;-77
2021/01/21 00:47:16;;;;;;;4.77;0.80;;;10.80;74.20;;;;;;4918251;29;20029;-76
2021/01/21 00:49:42;;;;;;;3.07;0.70;;;10.80;74.10;;;;;;4919424;29;20040;-76
2021/01/21 00:52:07;;;;;;;4.50;1.13;;;10.80;74.10;;;;;;4918049;29;20032;-76
2021/01/21 00:54:34;;;;;;;3.33;0.70;;;10.80;74.10;;;;;;4919097;29;20476;-76
2021/01/21 00:57:00;;;;;;;3.67;0.93;;;10.80;74.00;;;;;;4917878;29;20047;-76
2021/01/21 00:59:25;;;;;;;3.87;1.20;;;10.80;73.90;;;;;;4919325;29;20033;-75
2021/01/21 01:01:51;;;;;;;3.23;0.73;;;10.90;74.00;;;;;;4918935;29;20362;-76
2021/01/21 01:04:16;;;;;;;2.80;0.80;;;10.90;73.70;;;;;;4918842;29;20036;-77
2021/01/21 01:06:42;;;;;;;3.23;0.83;;;10.90;73.70;;;;;;4918286;29;20373;-77
2021/01/21 01:09:07;;;;;;;3.07;0.87;;;11.00;73.40;;;;;;4918084;29;20495;-75
2021/01/21 01:11:33;;;;;;;7.93;0.70;;;11.00;73.30;;;;;;4917934;29;20032;-75
2021/01/21 01:13:59;;;;;;;3.77;0.70;;;11.00;73.10;;;;;;4919006;29;20028;-76
2021/01/21 01:16:24;;;;;;;4.23;0.60;;;11.00;73.00;;;;;;4902004;29;20040;-77
2021/01/21 01:18:50;;;;;;;6.30;1.03;;;11.00;72.90;;;;;;4902078;29;20127;-74
2021/01/21 01:21:16;;;;;;;4.03;0.70;;;11.00;72.80;;;;;;4917372;29;20028;-75
2021/01/21 01:23:41;;;;;;;6.63;0.80;;;11.10;72.50;;;;;;4917640;29;20032;-75
2021/01/21 01:26:07;;;;;;;5.67;0.67;;;11.00;72.40;;;;;;4918356;29;20099;-77
2021/01/21 01:28:32;;;;;;;3.50;0.90;;;11.00;72.40;;;;;;4901597;29;20047;-76
2021/01/21 01:30:58;;;;;;;5.27;0.70;;;11.00;72.20;;;;;;4917731;29;20032;-76
2021/01/21 01:33:23;;;;;;;3.80;0.70;;;11.00;72.10;;;;;;4917127;29;20421;-75
2021/01/21 01:35:49;;;;;;;2.57;0.60;;;11.00;71.90;;;;;;4918619;29;20035;-76
2021/01/21 01:38:15;;;;;;;4.47;0.90;;;11.00;71.50;;;;;;4918450;29;20120;-75
2021/01/21 01:40:41;;;;;;;4.33;0.67;;;11.10;71.40;;;;;;4917097;29;20047;-77
2021/01/21 01:43:06;;;;;;;4.57;0.70;;;11.10;71.30;;;;;;4917067;29;20392;-75
2021/01/21 01:45:32;;;;;;;2.67;0.60;;;11.10;70.90;;;;;;4900858;29;20056;-76
2021/01/21 01:47:58;;;;;;;4.03;0.67;;;11.20;71.00;;;;;;4901478;29;20126;-76
2021/01/21 01:50:24;;;;;;;4.40;0.70;;;11.10;70.80;;;;;;4901111;29;20032;-75
2021/01/21 01:52:54;;;;;;;4.73;1.03;;;11.20;70.30;;;;;;4916817;29;20032;-75
2021/01/21 01:55:20;;;;;;;5.33;0.90;;;11.20;70.20;;;;;;4918076;29;20055;-76
2021/01/21 01:57:54;;;;;;;3.97;0.80;;;11.30;70.10;;;;;;4916742;29;20383;-76
2021/01/21 02:00:21;;;;;;;4.07;0.77;;;11.40;69.90;;;;;;4916742;29;20036;-75
2021/01/21 02:02:51;;;;;;;3.83;0.63;;;11.40;69.70;;;;;;4917961;29;20095;-75
2021/01/21 02:05:17;;;;;;;4.50;0.70;;;11.50;69.50;;;;;;4900679;29;20060;-74
2021/01/21 02:07:44;;;;;;;2.17;0.60;;;11.40;68.80;;;;;;4917626;29;20028;-76
2021/01/21 02:10:12;;;;;;;9.50;0.87;;;11.50;69.00;;;;;;4918627;29;20495;-75
2021/01/21 02:12:59;;;;;;;3.97;0.80;;;11.50;68.80;;;;;;4916861;29;20035;-75
2021/01/21 02:15:48;;;;;;;4.93;0.90;;;11.50;68.60;;;;;;4917823;29;20055;-76
2021/01/21 02:18:40;;;;;;;5.37;1.40;;;11.50;68.40;;;;;;4917051;29;20060;-76
2021/01/21 02:21:11;;;;;;;3.03;0.70;;;11.50;68.60;;;;;;4916993;29;20055;-74
2021/01/21 02:24:10;;;;;;;2.70;0.70;;;11.50;71.70;;;;;;4917662;29;20043;-75
2021/01/21 02:27:01;;;;;;;3.43;0.60;;;11.50;73.10;;;;;;4916078;29;20092;-75
2021/01/21 02:29:31;;;;;;;6.50;0.90;;;11.30;73.60;;;;;;4908928;29;20045;-76
2021/01/21 02:32:05;;;;;;;3.17;0.83;;;11.40;73.60;;;;;;4917391;29;20707;-75
2021/01/21 02:34:41;;;;;;;4.03;0.80;;;11.20;73.50;;;;;;4917477;29;20111;-75
2021/01/21 02:37:16;;;;;;;3.30;0.97;;;11.10;73.80;;;;;;4916373;29;20032;-76
2021/01/21 02:39:50;;;;;;;3.60;0.87;;;11.10;76.30;;;;;;4917233;29;20036;-74
2021/01/21 02:42:16;;;;;;;5.55;0.70;;;11.00;77.50;;;;;;4916041;29;20372;-75
2021/01/21 02:44:42;;;;;;;3.33;0.60;;;10.90;77.80;;;;;;4926866;29;20126;-75
2021/01/21 02:47:08;;;;;;;4.07;0.70;;;10.90;78.10;;;;;;4936514;29;20087;-76
2021/01/21 02:49:35;;;;;;;3.17;0.60;;;10.90;77.40;;;;;;4936197;29;20433;-75
2021/01/21 02:52:00;;;;;;;2.47;0.70;;;10.80;77.40;;;;;;4918800;29;20075;-75
2021/01/21 02:54:49;;;;;;;5.60;0.87;;;10.70;77.40;;;;;;4936462;29;20028;-76
2021/01/21 02:57:40;;;;;;;2.60;0.80;;;10.70;77.80;;;;;;4918833;29;20024;-75
2021/01/21 03:00:10;;;;;;;4.47;0.80;;;10.70;76.70;;;;;;4936058;29;20381;-75
2021/01/21 03:02:43;;;;;;;1.77;0.80;;;10.80;76.20;;;;;;4936184;29;20075;-74
2021/01/21 03:05:12;;;;;;;4.00;0.70;;;10.80;75.60;;;;;;4936113;29;20028;-75
2021/01/21 03:07:37;;;;;;;4.87;0.80;;;10.90;75.40;;;;;;4935287;29;20023;-75
2021/01/21 03:10:08;;;;;;;5.60;0.70;;;11.00;75.30;;;;;;4935555;29;20464;-74
2021/01/21 03:12:34;;;;;;;2.87;0.70;;;11.00;75.10;;;;;;4918314;29;20079;-74
2021/01/21 03:14:59;;;;;;;3.57;0.60;;;11.10;74.80;;;;;;4935737;29;20028;-75
2021/01/21 03:17:27;;;;;;;3.47;0.80;;;11.20;74.90;;;;;;4935751;29;20103;-76
2021/01/21 03:19:53;;;;;;;5.30;0.80;;;11.20;77.80;;;;;;4918825;29;20028;-75
2021/01/21 03:22:19;;;;;;;3.03;1.40;;;11.20;78.00;;;;;;4918779;29;20507;-74
2021/01/21 03:24:45;;;;;;;4.30;0.60;;;11.20;77.50;;;;;;4918984;29;20042;-75
2021/01/21 03:27:11;;;;;;;5.13;0.77;;;11.20;77.80;;;;;;4935676;29;20063;-75
2021/01/21 03:29:37;;;;;;;2.07;0.60;;;11.20;80.70;;;;;;4919179;29;20062;-75
2021/01/21 03:32:03;;;;;;;6.40;0.90;;;11.10;80.30;;;;;;4935522;29;20024;-75
2021/01/21 03:34:30;;;;;;;5.90;0.63;;;11.10;79.40;;;;;;4935679;29;20075;-76
2021/01/21 03:36:55;;;;;;;3.20;0.90;;;11.20;80.30;;;;;;4935553;29;20019;-76
2021/01/21 03:39:21;;;;;;;4.37;0.60;;;11.20;82.20;;;;;;4935614;29;20028;-75
2021/01/21 03:41:50;;;;;;;4.10;0.70;;;11.10;83.80;;;;;;4918642;29;20032;-75
2021/01/21 03:44:16;;;;;;;5.20;0.80;;;11.00;84.00;;;;;;4935447;29;20523;-75
2021/01/21 03:46:42;;;;;;;3.40;0.50;;;11.00;84.10;;;;;;4918703;29;20491;-74
2021/01/21 03:49:07;;;;;;;1.93;0.50;;;10.90;82.40;;;;;;4918975;29;20043;-74
2021/01/21 03:51:33;;;;;;;3.67;0.60;;;11.00;81.90;;;;;;4935593;29;20035;-74
2021/01/21 03:53:58;;;;;;;3.43;0.40;;;11.10;80.30;;;;;;4902815;29;20035;-74
2021/01/21 03:56:24;;;;;;;2.10;0.40;;;11.20;79.60;;;;;;4935655;29;20369;-74
2021/01/21 03:58:49;;;;;;;3.23;0.63;;;11.30;79.40;;;;;;4918559;29;20074;-74
2021/01/21 04:01:15;;;;;;;3.43;0.50;;;11.30;78.80;;;;;;4935475;29;20028;-75
2021/01/21 04:03:41;;;;;;;2.10;0.50;;;11.40;78.90;;;;;;4918316;29;20079;-76
2021/01/21 04:06:06;;;;;;;2.10;0.50;;;11.40;79.20;;;;;;4902585;29;20024;-75
2021/01/21 04:08:32;;;;;;;6.93;0.70;;;11.40;80.70;;;;;;4918659;29;20388;-74
2021/01/21 04:10:58;;;;;;;3.03;0.50;;;11.50;83.90;;;;;;4937876;29;20106;-73
2021/01/21 04:13:23;;;;;;;3.57;1.33;;;11.40;85.60;;;;;;4939122;29;20032;-75
2021/01/21 04:15:49;;;;;;;3.10;0.70;;;11.20;85.90;;;;;;4906061;29;20032;-75
2021/01/21 04:18:14;;;;;;;1.60;0.70;;;11.10;86.50;;;;;;4939021;29;20031;-75
2021/01/21 04:20:40;;;;;;;4.23;0.87;;;11.00;87.80;;;;;;4938910;29;20032;-74
2021/01/21 04:23:06;;;;;;;3.27;0.60;;;10.90;88.10;;;;;;4938751;29;20031;-76
2021/01/21 04:25:32;;;;;;;5.07;0.67;;;10.90;90.10;;;;;;4938914;29;20171;-75
2021/01/21 04:27:58;;;;;;;1.40;0.50;;;10.60;90.90;;;;;;4921399;29;20035;-74
2021/01/21 04:30:24;;;;;;;1.60;0.40;;;9.80;91.00;;;;;;4938708;29;20060;-75
2021/01/21 04:32:49;;;;;;;1.20;0.40;;;9.20;91.60;;;;;;4923858;29;20039;-74
2021/01/21 04:35:15;;;;;;;1.73;0.67;;;8.80;91.90;;;;;;4932276;29;20526;-75
2021/01/21 04:37:41;;;;;;;0.57;0.30;;;8.30;92.20;;;;;;4912858;29;20449;-74
2021/01/21 04:40:07;;;;;;;0.43;0.20;;;8.00;92.40;;;;;;4938405;29;20074;-74
2021/01/21 04:42:34;;;;;;;0.80;0.20;;;7.70;92.70;;;;;;4921599;29;20365;-75
2021/01/21 04:45:00;;;;;;;0.77;0.20;;;7.50;93.00;;;;;;4938296;29;20079;-75
2021/01/21 04:47:27;;;;;;;0.47;0.20;;;7.30;93.10;;;;;;4921170;29;20381;-74
2021/01/21 04:49:53;;;;;;;0.40;0.20;;;7.20;93.30;;;;;;4938061;29;20035;-74
2021/01/21 04:52:21;;;;;;;0.10;0.10;;;7.10;93.50;;;;;;4937181;29;20024;-75
2021/01/21 04:55:07;;;;;;;0.20;0.20;;;6.90;93.60;;;;;;4921411;29;20028;-76
2021/01/21 04:57:39;;;;;;;0.10;0.10;;;6.90;94.00;;;;;;4938280;29;20027;-75
2021/01/21 05:00:06;;;;;;;0.10;0.10;;;6.80;93.80;;;;;;4937917;29;20016;-73
2021/01/21 05:02:33;;;;;;;0.20;0.10;;;6.70;93.90;;;;;;4920175;29;20024;-74
2021/01/21 05:05:00;;;;;;;0.60;0.10;;;6.60;94.00;;;;;;4937826;29;20046;-75
2021/01/21 05:07:26;;;;;;;0.20;0.10;;;6.60;94.00;;;;;;4938147;29;20076;-74
2021/01/21 05:09:52;;;;;;;0.10;0.10;;;6.50;94.10;;;;;;4938237;29;20106;-74
2021/01/21 05:12:18;;;;;;;0.23;0.10;;;6.40;94.10;;;;;;4920413;29;20110;-73
2021/01/21 05:14:43;;;;;;;0.10;0.10;;;6.40;94.20;;;;;;4921155;29;20060;-73
2021/01/21 05:17:09;;;;;;;0.20;0.10;;;6.30;94.30;;;;;;4921062;29;20407;-73
2021/01/21 05:19:35;;;;;;;0.40;0.17;;;6.30;94.40;;;;;;4937785;29;20028;-74
2021/01/21 05:22:01;;;;;;;0.10;0.10;;;6.30;94.50;;;;;;4937280;29;20046;-74
2021/01/21 05:24:27;;;;;;;0.10;0.10;;;6.20;94.50;;;;;;4921015;29;20067;-74
2021/01/21 05:26:54;;;;;;;0.10;0.10;;;6.20;94.60;;;;;;4937427;29;20036;-74
2021/01/21 05:29:20;;;;;;;0.27;0.10;;;6.30;94.70;;;;;;4937624;29;20032;-73
2021/01/21 05:31:48;;;;;;;0.17;0.10;;;6.20;94.70;;;;;;4937670;29;20095;-74
2021/01/21 05:34:17;;;;;;;0.10;0.10;;;6.10;94.80;;;;;;4937548;29;20611;-74
2021/01/21 05:36:46;;;;;;;0.10;0.10;;;6.10;94.80;;;;;;4920566;29;20391;-74
2021/01/21 05:39:12;;;;;;;0.10;0.10;;;6.10;94.80;;;;;;4904539;29;20480;-75
2021/01/21 05:41:38;;;;;;;0.10;0.10;;;6.10;94.90;;;;;;4920304;29;20038;-74
2021/01/21 05:44:07;;;;;;;0.10;0.10;;;6.10;94.90;;;;;;4936990;29;20460;-77
2021/01/21 05:46:35;;;;;;;0.13;0.10;;;6.10;95.00;;;;;;4904296;29;20059;-77
2021/01/21 05:49:01;;;;;;;0.10;0.10;;;6.10;95.00;;;;;;4920073;29;20055;-77
2021/01/21 05:51:30;;;;;;;0.03;0.03;;;6.10;95.30;;;;;;4920024;29;20043;-76
2021/01/21 05:53:57;;;;;;;0.10;0.10;;;6.20;95.10;;;;;;4937026;29;20041;-76
2021/01/21 05:56:25;;;;;;;0.43;0.10;;;6.10;95.10;;;;;;4937328;29;20028;-77
2021/01/21 05:58:52;;;;;;;0.13;0.10;;;6.20;95.20;;;;;;4920132;29;20020;-76
2021/01/21 06:01:19;;;;;;;0.10;0.10;;;6.20;95.20;;;;;;4937195;29;20032;-77
2021/01/21 06:03:45;;;;;;;0.23;0.10;;;6.20;95.30;;;;;;4937061;29;20372;-76
2021/01/21 06:06:12;;;;;;;0.70;0.10;;;6.10;95.30;;;;;;4937100;29;20372;-76
2021/01/21 06:08:41;;;;;;;0.10;0.10;;;6.20;95.30;;;;;;4919703;29;20060;-77
2021/01/21 06:11:08;;;;;;;0.97;0.10;;;6.20;95.40;;;;;;4923329;29;20082;-77
2021/01/21 06:13:43;;;;;;;0.10;0.10;;;6.20;95.30;;;;;;4936616;29;20023;-76
2021/01/21 06:16:10;;;;;;;0.30;0.10;;;6.20;95.40;;;;;;4936759;29;20038;-77
2021/01/21 06:18:36;;;;;;;0.10;0.10;;;6.30;95.40;;;;;;4936679;29;20046;-77
2021/01/21 06:21:03;;;;;;;0.40;0.10;;;6.10;95.40;;;;;;4919850;29;20365;-78
2021/01/21 06:23:31;;;;;;;0.33;0.10;;;6.20;95.40;;;;;;4935449;29;20412;-77
2021/01/21 06:25:58;;;;;;;0.20;0.10;;;6.20;95.30;;;;;;4936402;29;20507;-77
2021/01/21 06:28:25;;;;;;;0.53;0.10;;;6.20;95.30;;;;;;4936464;29;20031;-77
2021/01/21 06:30:58;;;;;;;0.40;0.10;;;6.10;95.30;;;;;;4935655;29;20503;-77
2021/01/21 06:33:31;;;;;;;0.10;0.10;;;6.10;95.30;;;;;;4936171;29;20024;-76
2021/01/21 06:36:03;;;;;;;0.10;0.10;;;6.10;95.30;;;;;;4919461;29;20024;-77
2021/01/21 06:38:41;;;;;;;0.40;0.10;;;6.10;95.40;;;;;;4918430;28;20023;-77
2021/01/21 06:41:19;;;;;;;0.30;0.10;;;6.00;95.40;;;;;;4959489;28;20090;-77
2021/01/21 06:43:45;;;;;;;0.10;0.10;;;6.00;95.40;;;;;;4936983;29;20483;-77
2021/01/21 06:46:15;;;;;;;0.30;0.20;;;6.00;95.40;;;;;;4938051;29;20138;-76
2021/01/21 06:48:46;;;;;;;0.10;0.10;;;6.00;95.40;;;;;;4955820;29;20067;-76
2021/01/21 06:51:12;;;;;;;0.47;0.20;;;5.90;95.40;;;;;;4933802;28;20031;-77
2021/01/21 06:53:43;;;;;;;0.10;0.10;;;6.00;95.40;;;;;;4940864;28;20101;-76
2021/01/21 06:56:10;;;;;;;1.07;0.10;;;5.90;95.40;;;;;;4958067;28;20058;-76
2021/01/21 06:58:53;;;;;;;0.63;0.10;;;5.90;95.40;;;;;;4955159;28;20035;-73
2021/01/21 07:01:31;;;;;;;0.60;0.10;;;5.90;95.40;;;;;;4938238;29;20028;-72
2021/01/21 07:04:25;;;;;;;1.27;0.10;;;5.90;95.40;;;;;;4955361;29;20037;-73
2021/01/21 07:06:53;;;;;;;0.20;0.10;;;5.80;95.30;;;;;;4955360;29;20035;-73
2021/01/21 07:09:24;;;;;;;1.07;0.10;;;5.80;95.30;;;;;;4955069;28;20110;-72
2021/01/21 07:11:55;;;;;;;0.30;0.10;;;5.80;95.40;;;;;;4937883;29;20110;-73
2021/01/21 07:14:26;;;;;;;0.83;0.20;;;5.80;95.40;;;;;;4922754;29;20024;-75
2021/01/21 07:17:03;;;;;;;0.13;0.10;;;5.80;95.40;;;;;;4937790;29;20172;-73
2021/01/21 07:19:47;;;;;;;0.17;0.10;;;5.80;95.40;;;;;;4954703;29;20031;-73
2021/01/21 07:22:16;;;;;;;0.25;0.10;;;5.80;95.30;;;;;;4938353;29;20043;-73
2021/01/21 07:24:55;;;;;;;0.10;0.10;;;5.70;95.30;;;;;;4955107;29;20106;-73
2021/01/21 07:27:23;;;;;;;0.30;0.10;;;5.70;95.20;;;;;;4954520;29;20037;-73
2021/01/21 07:29:49;;;;;;;0.50;0.10;;;5.70;95.50;;;;;;4954908;29;20031;-74
2021/01/21 07:32:25;;;;;;;0.27;0.10;;;5.70;95.20;;;;;;4937907;29;20123;-73
2021/01/21 07:34:50;;;;;;;0.63;0.10;;;5.70;95.10;;;;;;4961034;28;20034;-73
2021/01/21 07:37:27;;;;;;;0.13;0.10;;;5.60;95.10;;;;;;4956953;28;20079;-74
2021/01/21 07:39:57;;;;;;;0.20;0.20;;;5.60;95.10;;;;;;4956387;28;20055;-73
2021/01/21 07:42:45;;;;;;;0.20;0.10;;;5.60;95.10;;;;;;4956565;28;20023;-73
2021/01/21 07:45:20;;;;;;;0.23;0.10;;;5.60;95.10;;;;;;4976610;28;20125;-74
2021/01/21 07:47:47;;;;;;;0.63;0.17;;;5.50;95.00;;;;;;4958941;28;20027;-74
2021/01/21 07:50:39;;;;;;;0.10;0.10;;;5.50;95.00;;;;;;4958332;29;20027;-74
2021/01/21 07:53:05;;;;;;;0.30;0.10;;;5.50;95.00;;;;;;4957873;29;20479;-72
2021/01/21 07:55:35;;;;;;;0.47;0.10;;;5.50;95.00;;;;;;4958303;29;20466;-73
2021/01/21 07:58:13;;;;;;;0.30;0.10;;;5.60;95.10;;;;;;4930309;29;20032;-73
2021/01/21 08:00:39;;;;;;;0.60;0.10;;;5.50;95.00;;;;;;4945615;29;20027;-73
2021/01/21 08:03:05;;;;;;;0.30;0.10;;;5.60;95.10;;;;;;4941189;29;20510;-72
2021/01/21 08:05:30;;;;;;;0.30;0.10;;;5.60;95.10;;;;;;4958310;29;20062;-73
2021/01/21 08:07:56;;;;;;;0.47;0.10;;;5.50;95.00;;;;;;4941358;29;20050;-72
2021/01/21 08:10:27;;;;;;;0.20;0.10;;;5.60;95.00;;;;;;4957983;29;20031;-72
2021/01/21 08:12:54;;;;;;;0.50;0.10;;;5.60;95.00;;;;;;4958027;29;20023;-73
2021/01/21 08:15:21;;;;;;;0.23;0.10;;;5.60;95.10;;;;;;4940669;29;20027;-72
2021/01/21 08:17:51;;;;;;;0.40;0.10;;;5.60;95.10;;;;;;4925060;29;20126;-72
2021/01/21 08:20:18;;;;;;;0.10;0.10;;;5.60;95.10;;;;;;4958119;29;20464;-72
2021/01/21 08:23:05;;;;;;;0.77;0.20;;;5.70;95.10;;;;;;4958051;29;20107;-74
2021/01/21 08:25:39;;;;;;;0.30;0.10;;;5.70;95.10;;;;;;4957777;29;20055;-72
2021/01/21 08:28:05;;;;;;;0.70;0.10;;;5.80;95.10;;;;;;4957601;29;20180;-73
2021/01/21 08:30:31;;;;;;;0.10;0.10;;;5.80;95.10;;;;;;4957483;29;20043;-73
2021/01/21 08:33:04;;;;;;;0.10;0.10;;;5.70;95.00;;;;;;4957398;29;20023;-73
2021/01/21 08:35:33;;;;;;;0.10;0.10;;;5.80;95.10;;;;;;4957680;29;20035;-73
2021/01/21 08:37:59;;;;;;;1.07;0.10;;;5.80;95.00;;;;;;4957583;29;20447;-74
2021/01/21 08:40:26;;;;;;;0.93;0.43;;;5.90;95.00;;;;;;4940267;29;20031;-73
2021/01/21 08:42:53;;;;;;;0.10;0.10;;;5.80;95.00;;;;;;4957873;29;20399;-74
2021/01/21 08:45:21;;;;;;;0.17;0.10;;;5.90;95.00;;;;;;4957138;29;20047;-74
2021/01/21 08:47:48;;;;;;;0.10;0.10;;;5.90;95.00;;;;;;4957211;29;20028;-73
2021/01/21 08:50:16;;;;;;;0.10;0.10;;;5.90;94.90;;;;;;4950713;28;20024;-73
2021/01/21 08:53:02;;;;;;;0.10;0.10;;;6.00;95.00;;;;;;4938076;29;20024;-73
2021/01/21 08:55:48;;;;;;;0.63;0.10;;;6.00;95.00;;;;;;4936515;29;20027;-73
2021/01/21 08:58:16;;;;;;;0.10;0.10;;;6.00;94.90;;;;;;4919942;29;20028;-74
2021/01/21 09:01:03;;;;;;;0.10;0.10;;;6.00;94.90;;;;;;4955281;29;20042;-73
2021/01/21 09:03:38;;;;;;;0.30;0.10;;;6.10;94.90;;;;;;4938557;29;20027;-73
2021/01/21 09:06:06;;;;;;;0.50;0.10;;;6.10;95.00;;;;;;4935338;29;20038;-73
2021/01/21 09:08:33;;;;;;;0.20;0.10;;;6.20;95.00;;;;;;4947386;29;20054;-73
2021/01/21 09:10:59;;;;;;;0.20;0.10;;;6.20;95.00;;;;;;4944753;29;20023;-73
2021/01/21 09:13:25;;;;;;;0.10;0.10;;;6.20;94.90;;;;;;4945751;29;20027;-73
2021/01/21 09:15:55;;;;;;;0.10;0.10;;;6.30;95.00;;;;;;4938563;29;20114;-73
2021/01/21 09:18:44;;;;;;;0.17;0.10;;;6.30;94.90;;;;;;4955707;29;20546;-73
2021/01/21 09:21:17;;;;;;;0.80;0.20;;;6.40;95.00;;;;;;4955232;29;20415;-73
2021/01/21 09:23:43;;;;;;;0.10;0.10;;;6.40;94.90;;;;;;4955309;29;20027;-73
2021/01/21 09:26:18;;;;;;;0.30;0.10;;;6.50;95.00;;;;;;4951610;29;20032;-74
2021/01/21 09:28:54;;;;;;;0.20;0.10;;;6.50;94.90;;;;;;4904029;29;20555;-73
2021/01/21 09:31:22;;;;;;;0.23;0.10;;;6.60;95.00;;;;;;4940474;29;20455;-73
2021/01/21 09:33:52;;;;;;;0.33;0.10;;;6.60;95.00;;;;;;4945739;29;20532;-74
2021/01/21 09:36:19;;;;;;;1.60;0.10;;;6.70;95.00;;;;;;4919554;29;20114;-75
2021/01/21 09:38:44;;;;;;;0.10;0.10;;;6.70;95.00;;;;;;4955992;28;20038;-74
2021/01/21 09:41:10;;;;;;;0.93;0.20;;;6.80;95.10;;;;;;4927327;29;20051;-73
2021/01/21 09:43:36;;;;;;;0.10;0.10;;;6.80;95.10;;;;;;4961746;28;20056;-74
2021/01/21 09:46:02;;;;;;;0.10;0.10;;;6.90;95.10;;;;;;4930044;29;20107;-73
2021/01/21 09:48:28;;;;;;;0.27;0.10;;;7.10;95.20;;;;;;4920216;29;20032;-74
2021/01/21 09:50:54;;;;;;;1.13;0.10;;;7.20;95.40;;;;;;4937190;29;20031;-73
2021/01/21 09:53:20;;;;;;;0.10;0.10;;;7.40;95.50;;;;;;4941393;29;20023;-74
2021/01/21 09:55:47;;;;;;;0.40;0.10;;;7.70;95.90;;;;;;4938937;29;20043;-74
2021/01/21 09:58:12;;;;;;;0.80;0.10;;;8.00;96.10;;;;;;4956163;29;20035;-73
2021/01/21 10:00:38;;;;;;;0.23;0.10;;;8.10;95.90;;;;;;4923437;29;20539;-75
2021/01/21 10:03:04;;;;;;;0.10;0.10;;;8.10;95.80;;;;;;4930809;28;20486;-74
2021/01/21 10:05:29;;;;;;;0.83;0.20;;;8.10;95.50;;;;;;4941698;28;20035;-74
2021/01/21 10:07:55;;;;;;;0.50;0.10;;;8.20;95.40;;;;;;4919045;29;20356;-74
2021/01/21 10:10:20;;;;;;;0.17;0.10;;;8.10;95.50;;;;;;4900303;29;20031;-74
2021/01/21 10:12:46;;;;;;;0.30;0.10;;;8.20;95.80;;;;;;4938337;29;20055;-75
2021/01/21 10:15:12;;;;;;;0.20;0.10;;;8.70;96.60;;;;;;4936275;29;20472;-74
2021/01/21 10:17:37;;;;;;;0.20;0.00;;;8.90;96.60;;;;;;4939923;28;20023;-74
2021/01/21 10:20:04;;;;;;;0.10;0.00;;;9.30;97.20;;;;;;4972537;28;20475;-75
2021/01/21 10:22:30;;;;;;;0.97;0.10;;;9.50;96.70;;;;;;4957803;28;20045;-74
2021/01/21 10:24:55;;;;;;;0.17;0.10;;;9.40;95.70;;;;;;4957523;28;20463;-74
2021/01/21 10:27:26;;;;;;;0.73;0.10;;;9.40;95.60;;;;;;4954532;28;20356;-74
2021/01/21 10:29:55;;;;;;;0.53;0.10;;;9.60;96.20;;;;;;4940525;29;20075;-75
2021/01/21 10:32:20;;;;;;;0.20;0.10;;;9.90;96.80;;;;;;4955976;28;20030;-74
2021/01/21 10:34:46;;;;;;;0.00;0.00;;;10.20;97.10;;;;;;4955619;28;20031;-75
2021/01/21 10:37:11;;;;;;;0.83;0.07;;;10.30;96.00;;;;;;4955698;29;20090;-75
2021/01/21 10:39:37;;;;;;;1.43;0.13;;;10.20;95.60;;;;;;4955917;29;20383;-75
2021/01/21 10:42:03;;;;;;;0.30;0.00;;;10.00;95.00;;;;;;4955784;29;20559;-74
2021/01/21 10:44:28;;;;;;;0.10;0.00;;;9.90;94.90;;;;;;4955317;29;20106;-74
2021/01/21 10:46:54;;;;;;;0.20;0.00;;;9.80;94.90;;;;;;4954747;29;20074;-75
2021/01/21 10:49:20;;;;;;;0.30;0.00;;;9.80;95.00;;;;;;4933100;29;20051;-74
2021/01/21 10:51:46;;;;;;;1.07;0.13;;;9.70;94.40;;;;;;4936725;29;20015;-75
2021/01/21 10:54:12;;;;;;;0.57;0.00;;;9.50;94.30;;;;;;4953865;28;20112;-75
2021/01/21 10:56:37;;;;;;;0.00;0.00;;;9.50;94.30;;;;;;4933634;29;20116;-73
2021/01/21 10:59:05;;;;;;;0.20;0.10;;;9.40;94.30;;;;;;4929405;29;20506;-74
2021/01/21 11:01:31;;;;;;;0.17;0.10;;;9.30;94.00;;;;;;4953556;28;20027;-74
2021/01/21 11:03:57;;;;;;;0.10;0.00;;;9.30;94.30;;;;;;4954650;29;20098;-74
2021/01/21 11:06:23;;;;;;;0.10;0.10;;;9.30;94.30;;;;;;4919019;29;20032;-74
2021/01/21 11:08:48;;;;;;;0.20;0.10;;;9.30;94.30;;;;;;4927435;29;20119;-74
2021/01/21 11:11:14;;;;;;;0.10;0.00;;;9.30;94.20;;;;;;4944172;29;20066;-74
2021/01/21 11:13:40;;;;;;;0.40;0.10;;;9.30;94.30;;;;;;4930406;29;20027;-76
2021/01/21 11:16:06;;;;;;;0.10;0.10;;;9.30;93.80;;;;;;4937495;29;20391;-74
2021/01/21 11:18:32;;;;;;;0.00;0.00;;;9.20;93.50;;;;;;4945066;28;20028;-74
2021/01/21 11:20:57;;;;;;;0.00;0.00;;;9.10;93.50;;;;;;4941232;29;20424;-76
2021/01/21 11:23:23;;;;;;;0.23;0.10;;;9.00;93.40;;;;;;4958954;28;20038;-74
2021/01/21 11:25:50;;;;;;;0.20;0.10;;;8.90;93.20;;;;;;4961204;28;20711;-73
2021/01/21 11:28:20;;;;;;;0.20;0.10;;;8.80;93.20;;;;;;4978056;28;20489;-73
2021/01/21 11:30:49;;;;;;;0.10;0.10;;;8.70;93.10;;;;;;4961553;28;20477;-74
2021/01/21 11:33:15;;;;;;;0.20;0.10;;;8.70;93.50;;;;;;4945097;28;20019;-73
2021/01/21 11:35:41;;;;;;;0.30;0.10;;;8.70;93.30;;;;;;4978258;28;20030;-75
2021/01/21 11:38:06;;;;;;;0.10;0.10;;;8.70;93.40;;;;;;4954493;29;20031;-74
2021/01/21 11:40:32;;;;;;;0.20;0.10;;;8.80;93.40;;;;;;4958968;29;20486;-75
2021/01/21 11:42:58;;;;;;;0.53;0.10;;;8.80;93.30;;;;;;4941672;29;20036;-75
2021/01/21 11:45:23;;;;;;;0.00;0.00;;;8.90;93.10;;;;;;4941335;29;20047;-74
2021/01/21 11:47:49;;;;;;;0.30;0.10;;;8.80;92.90;;;;;;4929551;29;20123;-74
2021/01/21 11:50:17;;;;;;;0.87;0.10;;;8.80;92.90;;;;;;4940472;29;20035;-74
2021/01/21 11:52:44;;;;;;;0.00;0.00;;;8.80;92.70;;;;;;4957989;29;20023;-74
2021/01/21 11:55:12;;;;;;;0.63;0.10;;;8.80;92.90;;;;;;4958365;29;20480;-74
2021/01/21 11:57:38;;;;;;;0.20;0.10;;;8.80;92.80;;;;;;4941265;29;20042;-74
2021/01/21 12:00:09;;;;;;;0.53;0.10;;;8.80;92.90;;;;;;4941177;29;20070;-74
2021/01/21 12:02:35;;;;;;;0.10;0.10;;;8.90;93.10;;;;;;4925357;29;20031;-75
2021/01/21 12:05:00;;;;;;;0.20;0.13;;;9.10;93.60;;;;;;4941002;29;20110;-74
2021/01/21 12:07:26;;;;;;;0.40;0.10;;;9.30;94.10;;;;;;4958175;29;20059;-76
2021/01/21 12:09:52;;;;;;;0.10;0.00;;;9.80;95.20;;;;;;4941147;29;20411;-75
2021/01/21 12:12:18;;;;;;;0.10;0.10;;;10.00;94.70;;;;;;4940956;29;20019;-74
2021/01/21 12:14:44;;;;;;;0.20;0.10;;;10.00;94.20;;;;;;4940884;29;20023;-75
2021/01/21 12:17:09;;;;;;;0.13;0.00;;;10.10;94.10;;;;;;4925076;29;20035;-74
2021/01/21 12:19:35;;;;;;;0.17;0.00;;;10.20;94.20;;;;;;4941200;29;20039;-75
2021/01/21 12:22:00;;;;;;;0.30;0.10;;;10.20;93.90;;;;;;4925088;29;20051;-74
2021/01/21 12:24:26;;;;;;;0.50;0.10;;;10.20;93.70;;;;;;4957956;29;20090;-75
2021/01/21 12:26:52;;;;;;;0.30;0.00;;;10.20;93.30;;;;;;4957723;29;20027;-75
2021/01/21 12:29:17;;;;;;;0.30;0.10;;;10.20;93.30;;;;;;4918927;29;20032;-75
2021/01/21 12:31:43;;;;;;;0.00;0.00;;;10.20;93.00;;;;;;4917886;29;20027;-75
2021/01/21 12:34:08;;;;;;;0.23;0.00;;;10.10;93.10;;;;;;4932360;29;20031;-74
2021/01/21 12:36:34;;;;;;;0.80;0.10;;;10.10;92.70;;;;;;4921305;29;20460;-74
2021/01/21 12:39:00;;;;;;;0.00;0.00;;;10.00;92.30;;;;;;4932912;29;20031;-75
2021/01/21 12:41:27;;;;;;;0.77;0.10;;;9.80;92.10;;;;;;4940468;29;20392;-77
2021/01/21 12:43:54;;;;;;;0.20;0.10;;;9.70;91.90;;;;;;4937419;29;20031;-74
2021/01/21 12:46:19;;;;;;;0.20;0.07;;;9.50;92.00;;;;;;4948706;29;20387;-75
2021/01/21 12:48:45;;;;;;;0.20;0.10;;;9.40;91.80;;;;;;4921516;29;20039;-76
2021/01/21 12:51:10;;;;;;;1.50;0.10;;;9.30;91.90;;;;;;4905434;29;20060;-75
2021/01/21 12:53:36;;;;;;;0.10;0.10;;;9.30;92.10;;;;;;4938259;29;20107;-76
2021/01/21 12:56:02;;;;;;;2.00;0.67;;;9.40;92.10;;;;;;4921491;29;20493;-76
2021/01/21 12:58:28;;;;;;;2.90;0.60;;;9.50;92.20;;;;;;4938179;29;20046;-74